Etusivu
METAR-TAF:

METAR-TAF

Lentoasemat :

Stennis International Airport

Bay St. Louis, Mississippi, Yhdysvallat

Leveyspiiri: 30-22-04N, Pituuspiiri: 089-27-17W, korkeus merenpinnasta: 7 m

Tämänhetkinen sää

Tämä raportti tehtiin 1 tunti ja 2 minuuttia sitten, kello 22.50 UTC
Tuuli 4 kn kaakosta
Lämpötila 21°C
Kosteus 88%
Ilmanpaine 1008 hPa
Näkyvyys: 11.3 km
Hajonneita pilviä 2700 ft:n korkeudessa

METAR: KHSA 252250Z 13004KT 7SM BKN027 21/19 A2977

Aika: 18:52 (23:52 UTC)


TAF: puuttuu

Säähavainnot ja -ennusteet yli 4000 lentoasemalta (METAR- ja TAF-raportit).

Käytössä olevat sääasemat on merkitty karttaan keltaisilla ja punaisilla pisteillä.

Aseta hiiri pisteen päälle nähdäksesi sääaseman nimen.

Klikkaa sitten nähdäksesi säähavainnot ja -ennusteet.

Kartan vaihtaminen: klikkaa mustalla rastilla varustettuja vihreitä pisteitä, niin voit zoomata sisään; viivalla varustettua vihreää pistettä, niin voit zoomata ulos tai vihreitä nuolia, niin pääset viereisille kartoille.


METAR-TAF: